Terminal Aerodrome Forecast
Issued by NWS

Home | Current Version | Previous Version | Text Only | Print | Product List | Glossary On
Versions: 1 2 3 4 5 6 7 8 9 10 11 12 13 14 15 16 17 18
000
FTUS43 KMQT 020859 AAA
TAFCMX
TAF AMD
KCMX 020859Z 0209/0306 00000KT 1/4SM FG FEW080
      TEMPO 0209/0211 4SM BR FEW080
     FM021300 00000KT 4SM BR SCT060
     FM021400 00000KT P6SM SCT070
     FM021700 13006KT P6SM SCT120=

USA.gov is the U.S. government's official web portal to all federal, state and local government web resources and services.